Eleven Mile, Pennsylvania
Current Conditions -  °F | °C
As of 11:31 AM on Monday 26 Jan 2015 (Local Time) from KELZ Reporting Station
Light Snow Light Snow  
Wind Chill:   Ceiling: 1100
Heat Index: 14°   Visibility: 1mi
Dew Point:   Wind: 7mph
Humidity: 77%   Direction: 90°E
Pressure: 29.78"   Gusts: NA
Location:  41.915°N, 77.8855°W
Report Text: KELZ 261631Z AUTO 09006KT 1SM -SN VV011 M10/M13 A2978 RMK AO2 P0002 T11001133
Loading
Personal Weather Stations






























Interactive Weather Map New forecast layout! Learn more

10-Day Weather Forecast

Advertisements
Track Severe Weather on mobile